Time;durP1;ratioP1;P1;durP2;ratioP2;P2;SDS_P1;SDS_P2;PMS_P1;PMS_P2;Temp;Humidity;BMP_temperature;BMP_pressure;BME280_temperature;BME280_humidity;BME280_pressure;Samples;Min_cycle;Max_cycle;Signal;HPM_P1;HPM_P2
2020/12/28 00:01:11;;;;;;;1.43;0.70;;;6.90;99.90;;;;;;5101252;28;20445;-75
2020/12/28 00:03:38;;;;;;;1.50;0.83;;;6.80;99.90;;;;;;5109269;28;21021;-79
2020/12/28 00:06:05;;;;;;;1.70;1.13;;;6.90;99.90;;;;;;5108079;28;21090;-75
2020/12/28 00:08:31;;;;;;;1.90;1.03;;;6.80;99.90;;;;;;5106803;28;20851;-76
2020/12/28 00:10:57;;;;;;;4.70;0.90;;;6.80;99.90;;;;;;5103995;28;20535;-76
2020/12/28 00:13:24;;;;;;;1.53;0.80;;;6.70;99.90;;;;;;5106345;28;21036;-79
2020/12/28 00:15:50;;;;;;;1.30;0.70;;;6.70;99.90;;;;;;5113302;28;20479;-76
2020/12/28 00:18:17;;;;;;;1.90;0.70;;;6.60;99.90;;;;;;5112939;28;20472;-80
2020/12/28 00:20:44;;;;;;;2.50;0.70;;;6.60;99.90;;;;;;5112083;28;20453;-76
2020/12/28 00:23:10;;;;;;;1.60;0.90;;;6.50;99.90;;;;;;5112301;28;21200;-77
2020/12/28 00:25:37;;;;;;;1.70;0.90;;;6.50;99.90;;;;;;5112389;28;20473;-78
2020/12/28 00:28:03;;;;;;;1.40;0.80;;;6.50;99.90;;;;;;5104890;28;20449;-78
2020/12/28 00:30:30;;;;;;;3.10;1.10;;;6.40;99.90;;;;;;5093830;28;20478;-76
2020/12/28 00:32:56;;;;;;;1.50;0.87;;;6.50;99.90;;;;;;5102809;28;20533;-74
2020/12/28 00:35:22;;;;;;;1.30;0.70;;;6.50;99.90;;;;;;5105843;28;20482;-79
2020/12/28 00:37:50;;;;;;;1.60;1.00;;;6.50;99.90;;;;;;5110543;28;20457;-76
2020/12/28 00:40:16;;;;;;;2.43;0.80;;;6.40;99.90;;;;;;5104240;28;20549;-75
2020/12/28 00:42:43;;;;;;;1.97;0.60;;;6.40;99.90;;;;;;5096773;28;20529;-74
2020/12/28 00:45:09;;;;;;;1.40;0.73;;;6.40;99.90;;;;;;5097823;28;20593;-80
2020/12/28 00:47:36;;;;;;;1.30;0.60;;;6.30;99.90;;;;;;5110433;28;20536;-76
2020/12/28 00:50:03;;;;;;;1.63;0.90;;;6.30;99.90;;;;;;5090787;28;20504;-75
2020/12/28 00:52:29;;;;;;;1.80;1.27;;;6.30;99.90;;;;;;5090674;28;21063;-75
2020/12/28 00:54:57;;;;;;;2.03;1.10;;;6.30;99.90;;;;;;5104818;28;20520;-74
2020/12/28 00:57:23;;;;;;;1.73;0.97;;;6.20;99.90;;;;;;5103658;28;20537;-74
2020/12/28 00:59:49;;;;;;;1.83;0.90;;;6.30;99.90;;;;;;5096879;28;20553;-76
2020/12/28 01:02:16;;;;;;;1.53;0.80;;;6.30;99.90;;;;;;5103822;28;20553;-74
2020/12/28 01:04:42;;;;;;;2.40;1.03;;;6.20;99.90;;;;;;5103965;28;20583;-74
2020/12/28 01:07:08;;;;;;;1.50;0.70;;;6.30;99.90;;;;;;5098044;28;20458;-75
2020/12/28 01:09:35;;;;;;;1.73;1.03;;;6.30;99.90;;;;;;5102710;28;20568;-75
2020/12/28 01:12:02;;;;;;;1.70;0.90;;;6.30;99.90;;;;;;5103966;28;20445;-74
2020/12/28 01:14:29;;;;;;;3.30;1.53;;;6.30;99.90;;;;;;5098529;28;20485;-75
2020/12/28 01:16:55;;;;;;;1.73;0.90;;;6.30;99.90;;;;;;5100799;28;20453;-76
2020/12/28 01:19:21;;;;;;;1.50;0.90;;;6.30;99.90;;;;;;5104737;28;20466;-75
2020/12/28 01:21:48;;;;;;;1.87;0.97;;;6.30;99.90;;;;;;5102646;28;20533;-77
2020/12/28 01:24:14;;;;;;;2.07;1.00;;;6.30;99.90;;;;;;5092556;28;20486;-76
2020/12/28 01:26:42;;;;;;;2.00;1.00;;;6.30;99.90;;;;;;5106722;28;20879;-76
2020/12/28 01:29:10;;;;;;;1.70;0.90;;;6.30;99.90;;;;;;5093980;28;20520;-79
2020/12/28 01:31:37;;;;;;;1.97;0.97;;;6.40;99.90;;;;;;5100267;28;20453;-78
2020/12/28 01:34:03;;;;;;;3.50;1.13;;;6.40;99.90;;;;;;5110484;28;20524;-76
2020/12/28 01:36:30;;;;;;;2.30;0.90;;;6.40;99.90;;;;;;5098529;28;20536;-76
2020/12/28 01:38:56;;;;;;;1.60;0.90;;;6.40;99.90;;;;;;5092920;28;20466;-76
2020/12/28 01:41:22;;;;;;;1.77;0.80;;;6.30;99.90;;;;;;5110108;28;20445;-76
2020/12/28 01:43:49;;;;;;;1.87;0.90;;;6.30;99.90;;;;;;5110470;28;20481;-78
2020/12/28 01:46:17;;;;;;;1.57;0.73;;;6.40;99.90;;;;;;5108668;28;20507;-75
2020/12/28 01:48:44;;;;;;;1.90;1.10;;;6.40;99.90;;;;;;5107855;28;20469;-74
2020/12/28 01:51:11;;;;;;;1.60;1.00;;;6.40;99.90;;;;;;5096244;28;20456;-76
2020/12/28 01:53:38;;;;;;;1.70;0.93;;;6.40;99.90;;;;;;5104984;28;21012;-75
2020/12/28 01:56:06;;;;;;;1.90;0.90;;;6.30;99.90;;;;;;5109061;28;20524;-74
2020/12/28 01:58:32;;;;;;;1.90;1.27;;;6.20;99.90;;;;;;5099491;28;20445;-75
2020/12/28 02:00:59;;;;;;;1.60;0.90;;;6.20;99.90;;;;;;5109451;28;20437;-77
2020/12/28 02:03:27;;;;;;;1.40;0.80;;;6.20;99.90;;;;;;5110327;28;20441;-76
2020/12/28 02:05:53;;;;;;;1.80;1.20;;;6.20;99.90;;;;;;5109788;28;20483;-75
2020/12/28 02:08:20;;;;;;;1.63;0.83;;;6.10;99.90;;;;;;5109766;28;20529;-76
2020/12/28 02:10:46;;;;;;;2.20;0.70;;;6.10;99.90;;;;;;5110122;28;20532;-75
2020/12/28 02:13:13;;;;;;;1.53;0.90;;;6.10;99.90;;;;;;5110320;28;20445;-75
2020/12/28 02:15:39;;;;;;;1.80;1.00;;;6.10;99.90;;;;;;5109403;28;21031;-77
2020/12/28 02:18:06;;;;;;;1.40;0.80;;;6.10;99.90;;;;;;5110225;28;20525;-75
2020/12/28 02:20:33;;;;;;;1.40;0.83;;;6.10;99.90;;;;;;5110169;28;20518;-75
2020/12/28 02:23:00;;;;;;;2.33;0.90;;;6.10;99.90;;;;;;5110483;28;20528;-76
2020/12/28 02:25:27;;;;;;;1.93;0.77;;;6.00;99.90;;;;;;5110025;28;20560;-77
2020/12/28 02:27:53;;;;;;;2.53;1.40;;;6.00;99.90;;;;;;5109619;28;20449;-76
2020/12/28 02:30:19;;;;;;;2.23;1.10;;;5.90;99.90;;;;;;5109644;28;20827;-77
2020/12/28 02:32:46;;;;;;;1.77;0.90;;;5.90;99.90;;;;;;5109665;28;20469;-76
2020/12/28 02:35:12;;;;;;;3.03;1.10;;;5.90;99.90;;;;;;5109663;28;20445;-77
2020/12/28 02:37:38;;;;;;;2.20;0.90;;;5.90;99.90;;;;;;5108829;28;20521;-76
2020/12/28 02:40:05;;;;;;;1.77;0.70;;;5.90;99.90;;;;;;5109324;28;20461;-77
2020/12/28 02:42:32;;;;;;;4.80;1.33;;;5.80;99.90;;;;;;5109601;28;20463;-76
2020/12/28 02:44:58;;;;;;;1.47;0.70;;;5.80;99.90;;;;;;5109299;28;20468;-76
2020/12/28 02:47:25;;;;;;;2.10;1.00;;;5.80;99.90;;;;;;5108768;28;20560;-76
2020/12/28 02:49:51;;;;;;;1.40;0.70;;;5.80;99.90;;;;;;5109289;28;20552;-75
2020/12/28 02:52:17;;;;;;;2.70;0.77;;;5.70;99.90;;;;;;5109283;28;20474;-76
2020/12/28 02:54:44;;;;;;;1.70;0.90;;;5.70;99.90;;;;;;5109186;28;20449;-76
2020/12/28 02:57:11;;;;;;;1.70;0.90;;;5.70;99.90;;;;;;5108747;28;20556;-76
2020/12/28 02:59:37;;;;;;;1.60;0.77;;;5.70;99.90;;;;;;5109266;28;21037;-76
2020/12/28 03:02:04;;;;;;;1.50;0.80;;;5.70;99.90;;;;;;5109068;28;21012;-76
2020/12/28 03:04:30;;;;;;;1.50;0.70;;;5.60;99.90;;;;;;5108881;27;20573;-76
2020/12/28 03:06:56;;;;;;;1.60;0.80;;;5.60;99.90;;;;;;5108879;28;20465;-76
2020/12/28 03:09:23;;;;;;;1.40;0.70;;;5.70;99.90;;;;;;5108862;28;20465;-77
2020/12/28 03:11:49;;;;;;;1.50;0.70;;;5.60;99.90;;;;;;5109157;28;20441;-76
2020/12/28 03:14:16;;;;;;;1.90;0.80;;;5.60;99.90;;;;;;5108997;28;20513;-75
2020/12/28 03:16:42;;;;;;;1.47;0.63;;;5.50;99.90;;;;;;5108122;28;20528;-76
2020/12/28 03:19:09;;;;;;;1.70;0.80;;;5.60;99.90;;;;;;5108816;28;20556;-76
2020/12/28 03:21:35;;;;;;;1.43;0.80;;;5.50;99.90;;;;;;5109106;28;20488;-76
2020/12/28 03:24:02;;;;;;;1.50;0.63;;;5.50;99.90;;;;;;5108800;28;20586;-76
2020/12/28 03:26:28;;;;;;;1.30;0.60;;;5.50;99.90;;;;;;5108311;28;20484;-76
2020/12/28 03:28:54;;;;;;;1.67;1.00;;;5.50;99.90;;;;;;5108889;28;20917;-76
2020/12/28 03:31:25;;;;;;;1.60;0.80;;;5.50;99.90;;;;;;5108774;28;20472;-76
2020/12/28 03:33:52;;;;;;;1.30;0.60;;;5.50;99.90;;;;;;5108976;28;20528;-76
2020/12/28 03:36:18;;;;;;;1.37;0.60;;;5.50;99.90;;;;;;5108179;28;20579;-76
2020/12/28 03:38:44;;;;;;;1.50;0.70;;;5.40;99.90;;;;;;5108661;28;20552;-76
2020/12/28 03:41:12;;;;;;;1.80;0.73;;;5.40;99.90;;;;;;5108554;28;20532;-76
2020/12/28 03:43:38;;;;;;;1.40;0.80;;;5.30;99.90;;;;;;5111791;28;20534;-76
2020/12/28 03:46:05;;;;;;;1.57;0.70;;;5.30;99.90;;;;;;5112102;28;20499;-76
2020/12/28 03:48:32;;;;;;;1.77;0.60;;;5.20;99.90;;;;;;5112703;28;20445;-76
2020/12/28 03:50:59;;;;;;;1.70;0.80;;;5.20;99.90;;;;;;5112793;28;20501;-76
2020/12/28 03:53:25;;;;;;;1.47;0.70;;;5.20;99.90;;;;;;5112979;28;20445;-76
2020/12/28 03:55:52;;;;;;;1.63;0.70;;;5.10;99.90;;;;;;5112312;28;20443;-76
2020/12/28 03:58:18;;;;;;;4.93;2.30;;;5.10;99.90;;;;;;5111774;28;20553;-76
2020/12/28 04:00:44;;;;;;;1.30;0.70;;;5.10;99.90;;;;;;5111783;27;20532;-76
2020/12/28 04:03:11;;;;;;;1.50;0.60;;;5.10;99.90;;;;;;5112507;28;20549;-76
2020/12/28 04:05:38;;;;;;;1.37;0.67;;;5.10;99.90;;;;;;5112284;28;20521;-77
2020/12/28 04:08:06;;;;;;;1.77;0.73;;;5.10;99.90;;;;;;5112458;28;20484;-76
2020/12/28 04:10:32;;;;;;;2.63;0.73;;;5.00;99.90;;;;;;5112307;28;21020;-76
2020/12/28 04:12:59;;;;;;;1.37;0.60;;;5.00;99.90;;;;;;5112323;28;20505;-76
2020/12/28 04:15:25;;;;;;;1.40;0.70;;;4.90;99.90;;;;;;5112019;28;20548;-76
2020/12/28 04:17:52;;;;;;;1.40;0.70;;;4.80;99.90;;;;;;5111600;28;20549;-76
2020/12/28 04:20:18;;;;;;;1.83;0.70;;;4.80;99.90;;;;;;5112252;28;20581;-76
2020/12/28 04:22:45;;;;;;;1.30;0.60;;;4.70;99.90;;;;;;5112250;28;20441;-76
2020/12/28 04:25:14;;;;;;;1.83;0.93;;;4.70;99.90;;;;;;5111996;28;20468;-76
2020/12/28 04:27:41;;;;;;;1.20;0.70;;;4.60;99.90;;;;;;5111242;28;20707;-76
2020/12/28 04:30:08;;;;;;;1.73;0.60;;;4.60;99.90;;;;;;5112018;28;21160;-76
2020/12/28 04:32:35;;;;;;;1.50;0.70;;;4.60;99.90;;;;;;5112033;28;20493;-75
2020/12/28 04:35:01;;;;;;;1.27;0.70;;;4.60;99.90;;;;;;5112153;28;20528;-76
2020/12/28 04:37:28;;;;;;;1.50;0.77;;;4.60;99.90;;;;;;5111371;28;20477;-77
2020/12/28 04:39:55;;;;;;;2.43;0.80;;;4.70;99.90;;;;;;5111883;28;20469;-76
2020/12/28 04:42:25;;;;;;;1.53;0.80;;;4.70;99.90;;;;;;5111902;28;20535;-76
2020/12/28 04:44:51;;;;;;;1.50;0.80;;;4.70;99.90;;;;;;5111644;28;20457;-76
2020/12/28 04:47:18;;;;;;;2.80;0.97;;;4.70;99.90;;;;;;5111151;28;20933;-76
2020/12/28 04:49:46;;;;;;;1.80;1.10;;;4.80;99.90;;;;;;5111692;28;20480;-76
2020/12/28 04:52:13;;;;;;;1.50;0.80;;;4.80;99.90;;;;;;5111631;28;20446;-76
2020/12/28 04:54:40;;;;;;;1.70;1.20;;;4.80;99.90;;;;;;5110520;28;20445;-76
2020/12/28 04:57:07;;;;;;;2.30;0.97;;;4.80;99.90;;;;;;5111051;28;20520;-76
2020/12/28 04:59:34;;;;;;;1.80;0.90;;;4.80;99.90;;;;;;5111341;28;20466;-76
2020/12/28 05:02:00;;;;;;;1.70;0.90;;;4.80;99.90;;;;;;5111834;28;20449;-76
2020/12/28 05:04:27;;;;;;;2.17;1.03;;;4.80;99.90;;;;;;5111929;28;20450;-76
2020/12/28 05:06:57;;;;;;;1.73;1.07;;;4.80;99.90;;;;;;5110675;28;20477;-76
2020/12/28 05:09:24;;;;;;;1.57;1.00;;;4.80;99.90;;;;;;5111449;28;20465;-76
2020/12/28 05:11:55;;;;;;;1.80;0.90;;;4.80;99.90;;;;;;5111462;28;20568;-76
2020/12/28 05:14:23;;;;;;;1.70;0.90;;;4.80;99.90;;;;;;5111313;28;20437;-76
2020/12/28 05:16:49;;;;;;;1.40;0.70;;;4.80;99.90;;;;;;5110461;28;20449;-76
2020/12/28 05:19:18;;;;;;;1.50;0.70;;;4.90;99.90;;;;;;5111241;28;20560;-76
2020/12/28 05:21:44;;;;;;;1.50;0.80;;;4.90;99.90;;;;;;5111593;28;20452;-76
2020/12/28 05:24:15;;;;;;;1.97;0.70;;;5.00;99.90;;;;;;5111442;28;20776;-76
2020/12/28 05:26:43;;;;;;;1.80;0.90;;;5.00;99.90;;;;;;5110241;28;20477;-76
2020/12/28 05:29:14;;;;;;;1.60;0.90;;;5.00;99.90;;;;;;5111225;28;20554;-76
2020/12/28 05:31:43;;;;;;;1.30;0.60;;;5.00;99.90;;;;;;5111051;28;20451;-76
2020/12/28 05:34:14;;;;;;;1.80;0.97;;;4.90;99.90;;;;;;5111161;28;20456;-76
2020/12/28 05:36:41;;;;;;;1.77;0.90;;;4.90;99.90;;;;;;5109455;28;20444;-76
2020/12/28 05:39:09;;;;;;;4.10;1.00;;;4.90;99.90;;;;;;5113346;28;20525;-77
2020/12/28 05:41:36;;;;;;;1.60;0.70;;;5.00;99.90;;;;;;5112047;28;20477;-76
2020/12/28 05:44:10;;;;;;;1.50;0.93;;;5.00;99.90;;;;;;5111768;28;20451;-76
2020/12/28 05:46:37;;;;;;;1.60;0.80;;;5.00;99.90;;;;;;5112000;28;20563;-76
2020/12/28 05:49:07;;;;;;;1.50;1.10;;;5.10;99.90;;;;;;5113327;28;20469;-77
2020/12/28 05:51:35;;;;;;;1.60;1.00;;;5.10;99.90;;;;;;5113387;28;20998;-76
2020/12/28 05:54:10;;;;;;;2.37;0.93;;;5.10;99.90;;;;;;5111855;28;20456;-77
2020/12/28 05:56:42;;;;;;;1.67;1.00;;;5.20;99.90;;;;;;5110464;28;20433;-76
2020/12/28 05:59:12;;;;;;;1.97;1.00;;;5.20;99.90;;;;;;5110479;28;20465;-77
2020/12/28 06:01:42;;;;;;;2.03;0.90;;;5.20;99.90;;;;;;5110331;28;20433;-76
2020/12/28 06:04:13;;;;;;;1.70;0.87;;;5.20;99.90;;;;;;5110429;28;20445;-76
2020/12/28 06:06:40;;;;;;;1.97;1.03;;;5.20;99.90;;;;;;5109342;28;20487;-76
2020/12/28 06:09:06;;;;;;;2.90;1.00;;;5.20;99.90;;;;;;5110163;28;20540;-76
2020/12/28 06:11:33;;;;;;;1.53;0.70;;;5.30;99.90;;;;;;5110107;28;20528;-76
2020/12/28 06:13:59;;;;;;;1.33;0.73;;;5.30;99.90;;;;;;5110736;28;20540;-76
2020/12/28 06:16:26;;;;;;;1.63;0.90;;;5.30;99.90;;;;;;5110755;28;20540;-76
2020/12/28 06:18:55;;;;;;;1.77;0.90;;;5.30;99.90;;;;;;5110591;28;20463;-76
2020/12/28 06:21:23;;;;;;;1.47;0.70;;;5.30;99.90;;;;;;5110957;28;20441;-76
2020/12/28 06:23:50;;;;;;;1.63;0.93;;;5.30;99.90;;;;;;5111811;28;20533;-76
2020/12/28 06:26:20;;;;;;;2.20;0.90;;;5.40;99.90;;;;;;5109452;28;20479;-76
2020/12/28 06:28:47;;;;;;;1.60;0.90;;;5.40;99.90;;;;;;5109966;28;20591;-76
2020/12/28 06:31:14;;;;;;;2.47;0.83;;;5.30;99.90;;;;;;5109941;28;20545;-76
2020/12/28 06:33:49;;;;;;;3.40;1.20;;;5.30;99.90;;;;;;5109546;28;20547;-76
2020/12/28 06:36:16;;;;;;;1.40;0.70;;;5.30;99.90;;;;;;5107217;28;20456;-75
2020/12/28 06:38:54;;;;;;;2.40;0.80;;;5.30;99.90;;;;;;5109395;28;20469;-76
2020/12/28 06:41:25;;;;;;;2.30;0.87;;;5.40;99.90;;;;;;5109707;28;20532;-77
2020/12/28 06:43:52;;;;;;;1.67;0.80;;;5.40;99.90;;;;;;5109462;28;20451;-76
2020/12/28 06:46:22;;;;;;;2.10;1.10;;;5.40;99.90;;;;;;5109021;28;20901;-76
2020/12/28 06:48:48;;;;;;;1.47;0.90;;;5.30;99.90;;;;;;5109257;28;21286;-76
2020/12/28 06:51:15;;;;;;;2.60;1.20;;;5.30;99.90;;;;;;5109177;28;21096;-76
2020/12/28 06:53:43;;;;;;;2.07;0.83;;;5.30;99.90;;;;;;5109319;28;20437;-77
2020/12/28 06:56:10;;;;;;;3.40;0.97;;;5.30;99.90;;;;;;5108675;28;20441;-76
2020/12/28 06:58:37;;;;;;;1.67;1.03;;;5.30;99.90;;;;;;5109117;28;20434;-76
2020/12/28 07:01:04;;;;;;;1.50;0.80;;;5.20;99.90;;;;;;5109097;28;20438;-76
2020/12/28 07:03:31;;;;;;;1.60;0.80;;;5.20;99.90;;;;;;5109231;28;20536;-77
2020/12/28 07:05:59;;;;;;;2.13;1.20;;;5.20;99.90;;;;;;5108498;28;20477;-76
2020/12/28 07:08:26;;;;;;;2.03;1.10;;;5.20;99.90;;;;;;5108710;28;20532;-77
2020/12/28 07:11:00;;;;;;;2.00;1.10;;;5.20;99.90;;;;;;5108887;28;20532;-77
2020/12/28 07:13:26;;;;;;;1.20;0.60;;;5.20;99.90;;;;;;5109138;28;20523;-77
2020/12/28 07:16:00;;;;;;;1.70;0.80;;;5.20;99.90;;;;;;5108233;28;20503;-76
2020/12/28 07:18:27;;;;;;;2.53;1.17;;;5.20;99.90;;;;;;5108056;28;20497;-76
2020/12/28 07:20:57;;;;;;;1.80;0.97;;;5.20;99.90;;;;;;5108950;28;20826;-76
2020/12/28 07:23:25;;;;;;;1.70;0.90;;;5.20;99.90;;;;;;5108702;28;20460;-76
2020/12/28 07:26:03;;;;;;;3.00;1.00;;;5.20;99.90;;;;;;5108316;28;20477;-76
2020/12/28 07:28:29;;;;;;;3.30;1.30;;;5.20;99.90;;;;;;5108725;28;20502;-76
2020/12/28 07:30:57;;;;;;;2.07;1.13;;;5.20;99.90;;;;;;5108584;28;20933;-76
2020/12/28 07:33:24;;;;;;;1.70;1.10;;;5.20;99.90;;;;;;5108877;28;20437;-76
2020/12/28 07:36:04;;;;;;;3.40;1.27;;;5.10;99.90;;;;;;5106693;28;20449;-76
2020/12/28 07:38:31;;;;;;;1.67;1.07;;;5.10;99.90;;;;;;5108857;28;20452;-76
2020/12/28 07:40:58;;;;;;;2.10;1.00;;;5.10;99.90;;;;;;5108888;28;20443;-76
2020/12/28 07:43:25;;;;;;;5.90;1.67;;;5.10;99.90;;;;;;5108704;28;20445;-77
2020/12/28 07:45:52;;;;;;;2.53;1.30;;;5.10;99.90;;;;;;5107836;28;20525;-76
2020/12/28 07:48:22;;;;;;;2.07;1.40;;;5.00;99.90;;;;;;5108428;28;20445;-77
2020/12/28 07:50:53;;;;;;;3.33;1.37;;;5.00;99.90;;;;;;5108747;28;20545;-76
2020/12/28 07:53:26;;;;;;;2.53;1.57;;;5.00;99.90;;;;;;5108545;28;20941;-76
2020/12/28 07:55:59;;;;;;;2.77;1.50;;;5.00;99.90;;;;;;5108025;28;20437;-76
2020/12/28 07:58:39;;;;;;;4.13;1.50;;;5.10;99.90;;;;;;5108712;28;20445;-77
2020/12/28 08:01:17;;;;;;;3.37;1.60;;;5.00;99.90;;;;;;5108609;28;20448;-77
2020/12/28 08:03:47;;;;;;;2.50;1.13;;;5.00;99.90;;;;;;5109070;28;20536;-77
2020/12/28 08:06:15;;;;;;;2.07;1.27;;;5.00;99.90;;;;;;5108291;28;20483;-73
2020/12/28 08:08:42;;;;;;;2.13;0.93;;;5.10;99.90;;;;;;5108370;28;20465;-74
2020/12/28 08:11:09;;;;;;;1.90;1.10;;;5.00;99.90;;;;;;5108829;28;20445;-73
2020/12/28 08:13:37;;;;;;;1.73;1.00;;;5.10;99.90;;;;;;5109094;28;20580;-73
2020/12/28 08:16:10;;;;;;;1.80;1.00;;;5.00;99.90;;;;;;5107738;28;20836;-73
2020/12/28 08:18:47;;;;;;;2.10;1.10;;;5.00;99.90;;;;;;5108318;28;20445;-73
2020/12/28 08:21:14;;;;;;;2.50;1.30;;;5.00;99.90;;;;;;5108183;28;21162;-73
2020/12/28 08:23:40;;;;;;;2.60;1.10;;;5.10;99.90;;;;;;5108330;28;20452;-73
2020/12/28 08:26:18;;;;;;;1.87;1.23;;;5.10;99.90;;;;;;5105737;28;20473;-74
2020/12/28 08:28:53;;;;;;;2.57;1.63;;;5.10;99.90;;;;;;5109718;28;20543;-72
2020/12/28 08:31:25;;;;;;;2.90;1.20;;;5.10;99.90;;;;;;5111092;28;20448;-74
2020/12/28 08:34:01;;;;;;;1.67;0.93;;;5.10;99.90;;;;;;5111961;28;20449;-73
2020/12/28 08:36:28;;;;;;;2.27;1.40;;;5.20;99.90;;;;;;5111090;28;20527;-72
2020/12/28 08:38:55;;;;;;;2.97;1.90;;;5.10;99.90;;;;;;5111902;28;20973;-73
2020/12/28 08:41:21;;;;;;;2.20;1.63;;;5.10;99.90;;;;;;5111888;28;20555;-73
2020/12/28 08:43:48;;;;;;;2.37;1.50;;;5.20;99.90;;;;;;5113056;28;20445;-71
2020/12/28 08:46:22;;;;;;;3.23;1.40;;;5.10;99.90;;;;;;5111510;28;20473;-70
2020/12/28 08:48:48;;;;;;;3.40;1.80;;;5.20;99.90;;;;;;5111706;28;20457;-77
2020/12/28 08:51:15;;;;;;;2.70;1.53;;;5.10;99.90;;;;;;5112021;28;20517;-73
2020/12/28 08:53:46;;;;;;;3.40;1.80;;;5.10;99.90;;;;;;5112040;28;20441;-72
2020/12/28 08:56:12;;;;;;;3.57;1.37;;;5.10;99.90;;;;;;5111330;28;20448;-73
2020/12/28 08:58:39;;;;;;;3.83;1.40;;;5.10;99.90;;;;;;5112078;28;20448;-72
2020/12/28 09:01:05;;;;;;;2.43;1.20;;;5.10;99.90;;;;;;5111903;28;20449;-74
2020/12/28 09:03:35;;;;;;;2.10;1.10;;;5.10;99.90;;;;;;5112490;28;20837;-76
2020/12/28 09:06:02;;;;;;;3.50;0.93;;;5.10;99.90;;;;;;5111574;28;20592;-73
2020/12/28 09:08:28;;;;;;;3.03;1.07;;;5.20;99.90;;;;;;5112776;28;20516;-76
2020/12/28 09:10:55;;;;;;;2.10;1.23;;;5.20;99.90;;;;;;5112752;28;20536;-75
2020/12/28 09:13:21;;;;;;;2.73;1.20;;;5.20;99.90;;;;;;5112641;28;20785;-77
2020/12/28 09:15:47;;;;;;;1.80;1.27;;;5.30;99.90;;;;;;5120741;27;20938;-76
2020/12/28 09:18:14;;;;;;;2.03;1.00;;;5.30;99.90;;;;;;5133964;27;20440;-76
2020/12/28 09:20:41;;;;;;;2.60;1.00;;;5.30;99.90;;;;;;5133157;27;20464;-76
2020/12/28 09:23:08;;;;;;;1.73;1.00;;;5.30;99.90;;;;;;5132959;27;20440;-76
2020/12/28 09:25:34;;;;;;;3.40;1.30;;;5.40;99.90;;;;;;5132463;27;20511;-76
2020/12/28 09:28:01;;;;;;;2.20;1.40;;;5.40;99.90;;;;;;5132298;27;20527;-74
2020/12/28 09:30:27;;;;;;;5.40;1.77;;;5.40;99.90;;;;;;5131823;27;20468;-77
2020/12/28 09:32:54;;;;;;;1.80;1.30;;;5.40;99.90;;;;;;5135404;27;20553;-77
2020/12/28 09:35:20;;;;;;;2.17;1.10;;;5.40;99.90;;;;;;5132836;27;20964;-77
2020/12/28 09:37:48;;;;;;;2.10;1.30;;;5.40;99.90;;;;;;5131529;27;20993;-77
2020/12/28 09:40:14;;;;;;;2.67;1.33;;;5.40;99.90;;;;;;5131714;27;20544;-77
2020/12/28 09:42:41;;;;;;;2.63;1.50;;;5.40;99.90;;;;;;5132913;27;20535;-77
2020/12/28 09:47:48;;;;;;;2.20;1.30;;;5.50;99.90;;;;;;5132608;27;20432;-78
2020/12/28 09:50:15;;;;;;;2.43;1.30;;;5.50;99.90;;;;;;5135954;27;21084;-76
2020/12/28 09:52:41;;;;;;;2.37;1.60;;;5.50;99.90;;;;;;5132329;27;20597;-76
2020/12/28 09:55:09;;;;;;;8.23;3.43;;;5.60;99.90;;;;;;5132740;27;20883;-74
2020/12/28 09:57:35;;;;;;;3.00;1.43;;;5.60;99.90;;;;;;5132891;27;20440;-77
2020/12/28 10:00:01;;;;;;;2.07;1.23;;;5.70;99.90;;;;;;5132050;27;20472;-76
2020/12/28 10:02:28;;;;;;;2.47;1.53;;;5.80;99.90;;;;;;5132178;27;21056;-75
2020/12/28 10:04:54;;;;;;;1.90;1.30;;;5.70;99.90;;;;;;5132232;27;20447;-76
2020/12/28 10:07:21;;;;;;;3.53;1.47;;;5.80;99.90;;;;;;5131812;27;20566;-75
2020/12/28 10:09:47;;;;;;;2.30;1.53;;;5.90;99.90;;;;;;5132553;27;20488;-75
2020/12/28 10:12:14;;;;;;;2.13;1.47;;;6.00;99.90;;;;;;5132215;27;20519;-75
2020/12/28 10:14:41;;;;;;;2.50;1.73;;;6.10;99.90;;;;;;5131584;27;20447;-75
2020/12/28 10:17:07;;;;;;;3.20;1.83;;;6.10;99.90;;;;;;5132280;27;20985;-74
2020/12/28 10:19:33;;;;;;;3.50;1.77;;;6.20;99.90;;;;;;5133440;27;20466;-75
2020/12/28 10:22:00;;;;;;;2.77;1.50;;;6.20;99.90;;;;;;5132551;27;20540;-75
2020/12/28 10:24:27;;;;;;;2.63;1.70;;;6.20;99.90;;;;;;5132871;27;20432;-75
2020/12/28 10:26:53;;;;;;;2.03;1.57;;;6.20;99.90;;;;;;5131284;27;21327;-75
2020/12/28 10:29:20;;;;;;;3.40;1.70;;;6.20;99.90;;;;;;5131771;27;20555;-75
2020/12/28 10:31:47;;;;;;;5.10;2.13;;;6.20;99.90;;;;;;5130044;27;20538;-75
2020/12/28 10:34:13;;;;;;;3.40;2.13;;;6.20;99.90;;;;;;5131303;27;20929;-75
2020/12/28 10:36:39;;;;;;;3.40;2.53;;;6.30;99.90;;;;;;5131228;27;20471;-75
2020/12/28 10:39:06;;;;;;;6.33;2.33;;;6.30;99.90;;;;;;5130983;27;20500;-75
2020/12/28 10:41:33;;;;;;;2.70;2.03;;;6.40;99.90;;;;;;5130641;27;20472;-75
2020/12/28 10:44:00;;;;;;;2.60;2.07;;;6.40;99.90;;;;;;5130376;27;20446;-75
2020/12/28 10:46:28;;;;;;;3.47;2.23;;;6.30;99.90;;;;;;5129926;27;20484;-75
2020/12/28 10:48:56;;;;;;;2.93;2.50;;;6.30;99.90;;;;;;5130689;27;20478;-74
2020/12/28 10:51:23;;;;;;;3.63;2.80;;;6.40;99.90;;;;;;5129912;27;20502;-75
2020/12/28 10:53:49;;;;;;;2.83;2.43;;;6.40;99.90;;;;;;5129841;27;20936;-74
2020/12/28 10:56:22;;;;;;;4.90;2.77;;;6.50;99.90;;;;;;5129314;27;20986;-75
2020/12/28 10:58:49;;;;;;;3.90;2.67;;;6.60;99.90;;;;;;5129798;27;20502;-74
2020/12/28 11:01:15;;;;;;;3.20;2.77;;;6.60;99.90;;;;;;5129893;27;20559;-75
2020/12/28 11:03:42;;;;;;;5.50;2.70;;;6.60;99.90;;;;;;5129451;27;20454;-75
2020/12/28 11:06:08;;;;;;;3.90;2.83;;;6.60;99.90;;;;;;5128751;27;20514;-74
2020/12/28 11:08:38;;;;;;;2.90;2.43;;;6.70;99.90;;;;;;5131057;27;20527;-75
2020/12/28 11:11:04;;;;;;;3.07;2.70;;;6.60;99.90;;;;;;5132052;27;20943;-76
2020/12/28 11:13:31;;;;;;;3.40;2.90;;;6.60;99.90;;;;;;5129974;27;20447;-74
2020/12/28 11:15:57;;;;;;;4.97;3.43;;;6.60;99.90;;;;;;5128890;27;20451;-74
2020/12/28 11:18:23;;;;;;;3.70;2.97;;;6.50;99.90;;;;;;5129133;27;21051;-75
2020/12/28 11:20:51;;;;;;;3.50;2.83;;;6.50;99.90;;;;;;5129348;27;20535;-76
2020/12/28 11:23:17;;;;;;;3.30;2.80;;;6.50;99.90;;;;;;5131681;27;20444;-77
2020/12/28 11:25:43;;;;;;;4.30;3.60;;;6.40;99.90;;;;;;5131710;27;20610;-77
2020/12/28 11:28:10;;;;;;;3.37;2.80;;;6.40;99.90;;;;;;5131612;27;20535;-77
2020/12/28 11:30:36;;;;;;;4.00;3.00;;;6.40;99.90;;;;;;5134689;27;20474;-76
2020/12/28 11:33:03;;;;;;;3.50;2.80;;;6.40;99.90;;;;;;5131038;27;20436;-76
2020/12/28 11:38:15;;;;;;;4.40;3.53;;;6.40;99.90;;;;;;5144387;27;20445;-77
2020/12/28 11:40:41;;;;;;;4.43;3.40;;;6.40;99.90;;;;;;5130399;27;20513;-77
2020/12/28 11:43:08;;;;;;;3.60;3.23;;;6.50;99.90;;;;;;5129438;27;20438;-75
2020/12/28 11:45:34;;;;;;;5.53;3.40;;;6.50;99.90;;;;;;5131291;27;20471;-75
2020/12/28 11:48:00;;;;;;;3.00;2.50;;;6.60;99.90;;;;;;5129956;27;20581;-77
2020/12/28 11:50:27;;;;;;;5.47;3.67;;;6.60;99.90;;;;;;5130185;27;20468;-77
2020/12/28 11:52:53;;;;;;;4.00;3.00;;;6.70;99.90;;;;;;5129183;27;20443;-74
2020/12/28 11:55:20;;;;;;;3.87;2.60;;;6.70;99.90;;;;;;5130559;27;20580;-77
2020/12/28 11:57:47;;;;;;;4.60;3.20;;;6.70;99.90;;;;;;5128464;27;20521;-75
2020/12/28 12:00:13;;;;;;;4.87;3.73;;;6.70;99.90;;;;;;5130016;27;20464;-77
2020/12/28 12:02:39;;;;;;;4.30;3.27;;;6.80;99.90;;;;;;5129471;27;20457;-76
2020/12/28 12:05:06;;;;;;;3.80;3.40;;;6.80;99.90;;;;;;5133318;27;20503;-77
2020/12/28 12:07:32;;;;;;;6.20;3.33;;;6.80;99.90;;;;;;5133512;27;20609;-77
2020/12/28 12:09:58;;;;;;;4.30;3.20;;;6.80;99.90;;;;;;5135374;27;20467;-76
2020/12/28 12:12:26;;;;;;;5.20;3.80;;;6.80;99.90;;;;;;5136492;27;20471;-76
2020/12/28 12:14:52;;;;;;;4.10;3.57;;;6.90;99.90;;;;;;5134428;27;20538;-78
2020/12/28 12:17:18;;;;;;;6.10;3.10;;;6.90;99.90;;;;;;5136876;27;21027;-76
2020/12/28 12:19:45;;;;;;;4.90;3.77;;;6.90;99.90;;;;;;5138260;27;20544;-76
2020/12/28 12:22:11;;;;;;;4.80;3.60;;;6.90;99.90;;;;;;5137326;27;20968;-77
2020/12/28 12:24:37;;;;;;;4.73;3.40;;;6.90;99.90;;;;;;5136809;27;20523;-77
2020/12/28 12:27:04;;;;;;;5.00;3.77;;;7.00;99.90;;;;;;5136599;27;20622;-77
2020/12/28 12:29:31;;;;;;;4.80;4.13;;;6.90;99.90;;;;;;5134793;27;20490;-76
2020/12/28 12:31:57;;;;;;;4.47;3.70;;;6.90;99.90;;;;;;5132710;27;20543;-78
2020/12/28 12:34:24;;;;;;;5.90;4.43;;;6.90;99.90;;;;;;5134256;27;20507;-76
2020/12/28 12:36:50;;;;;;;4.87;4.00;;;6.90;99.90;;;;;;5134063;27;20472;-76
2020/12/28 12:39:16;;;;;;;4.50;3.77;;;6.80;99.90;;;;;;5133168;27;20495;-73
2020/12/28 12:41:43;;;;;;;5.87;4.43;;;6.90;99.90;;;;;;5132605;27;20897;-73
2020/12/28 12:44:09;;;;;;;5.57;5.00;;;6.90;99.90;;;;;;5132652;27;20471;-74
2020/12/28 12:46:36;;;;;;;5.80;4.37;;;6.80;99.90;;;;;;5132253;27;20511;-75
2020/12/28 12:49:03;;;;;;;4.93;3.80;;;6.80;99.90;;;;;;5132285;27;20544;-73
2020/12/28 12:51:29;;;;;;;4.70;4.20;;;6.70;99.90;;;;;;5133501;27;20527;-73
2020/12/28 12:53:56;;;;;;;5.50;4.20;;;6.60;99.90;;;;;;5132397;27;20468;-73
2020/12/28 12:56:22;;;;;;;5.30;4.23;;;6.50;99.90;;;;;;5131459;27;20963;-73
2020/12/28 12:58:49;;;;;;;5.30;4.80;;;6.40;99.90;;;;;;5131791;27;20668;-74
2020/12/28 13:01:15;;;;;;;6.20;4.83;;;6.30;99.90;;;;;;5132503;27;20495;-76
2020/12/28 13:03:42;;;;;;;6.60;4.97;;;6.20;99.90;;;;;;5132112;27;20888;-75